createdAt,value
2019-05-25T00:04:12.665Z,3.25
2019-05-25T00:09:27.963Z,3.50
2019-05-25T00:14:50.644Z,4.25
2019-05-25T00:19:55.239Z,4.00
2019-05-25T00:24:59.825Z,4.00
2019-05-25T00:30:04.933Z,3.00
2019-05-25T00:35:09.996Z,3.20
2019-05-25T00:40:14.436Z,4.00
2019-05-25T00:45:18.934Z,4.20
2019-05-25T00:50:23.323Z,4.00
2019-05-25T00:55:27.551Z,3.40
2019-05-25T01:00:31.923Z,3.00
2019-05-25T01:05:38.449Z,4.00
2019-05-25T01:10:42.782Z,3.00
2019-05-25T01:15:48.501Z,4.40
2019-05-25T01:20:53.002Z,3.00
2019-05-25T01:25:58.457Z,3.00
2019-05-25T01:31:02.915Z,3.00
2019-05-25T01:36:07.337Z,3.50
2019-05-25T01:41:11.922Z,3.00
2019-05-25T01:46:16.364Z,4.00
2019-05-25T01:51:21.044Z,3.80
2019-05-25T01:56:25.493Z,3.00
2019-05-25T02:01:29.927Z,3.80
2019-05-25T02:06:34.362Z,3.00
2019-05-25T02:11:38.772Z,3.40
2019-05-25T02:16:43.243Z,3.60
2019-05-25T02:21:47.560Z,2.40
2019-05-25T02:26:51.941Z,2.80
2019-05-25T02:31:56.720Z,2.80
2019-05-25T02:37:01.705Z,3.20
2019-05-25T02:42:08.583Z,3.00
2019-05-25T02:47:13.267Z,2.75
2019-05-25T02:52:18.797Z,2.60
2019-05-25T02:57:40.172Z,2.60
2019-05-25T03:02:42.142Z,2.80
2019-05-25T03:07:46.737Z,3.40
2019-05-25T03:12:52.247Z,2.25
2019-05-25T03:18:00.427Z,2.20
2019-05-25T03:23:06.707Z,2.25
2019-05-25T03:28:12.603Z,2.75
2019-05-25T03:33:18.859Z,3.00
2019-05-25T03:38:50.559Z,4.00
2019-05-25T03:44:08.226Z,2.80
2019-05-25T03:49:21.864Z,2.80
2019-05-25T03:54:32.675Z,2.75
2019-05-25T03:59:38.397Z,3.00
2019-05-25T04:04:42.839Z,3.00
2019-05-25T04:09:47.736Z,3.00
2019-05-25T04:14:52.812Z,2.60
2019-05-25T04:19:57.410Z,3.00
2019-05-25T04:25:04.606Z,2.40
2019-05-25T04:30:09.980Z,3.00
2019-05-25T04:35:19.681Z,3.00
2019-05-25T04:40:37.410Z,2.00
2019-05-25T04:45:45.045Z,3.00
2019-05-25T04:50:50.354Z,3.00
2019-05-25T04:55:54.987Z,3.50
2019-05-25T05:00:59.566Z,3.25
2019-05-25T05:06:04.278Z,2.00
2019-05-25T05:11:09.464Z,2.00
2019-05-25T05:16:14.274Z,2.00
2019-05-25T05:21:18.862Z,3.00
2019-05-25T05:26:23.936Z,2.50
2019-05-25T05:31:33.336Z,3.00
2019-05-25T05:36:38.097Z,3.00
2019-05-25T05:41:42.761Z,2.00
2019-05-25T05:46:49.484Z,2.00
2019-05-25T05:51:55.689Z,3.40
2019-05-25T05:57:11.686Z,2.40
2019-05-25T06:02:06.570Z,3.00
2019-05-25T06:07:11.170Z,2.00
2019-05-25T06:12:15.549Z,3.00
2019-05-25T06:17:19.955Z,2.40
2019-05-25T06:22:24.537Z,2.25
2019-05-25T06:27:29.133Z,2.25
2019-05-25T06:32:34.995Z,2.00
2019-05-25T06:37:39.455Z,1.25
2019-05-25T06:42:44.380Z,1.20
2019-05-25T06:47:48.965Z,2.75
2019-05-25T06:52:53.060Z,1.60
2019-05-25T06:57:57.076Z,1.75
2019-05-25T07:03:01.249Z,3.00
2019-05-25T07:08:05.400Z,4.25
2019-05-25T07:13:09.520Z,3.00
2019-05-25T07:18:13.805Z,2.00
2019-05-25T07:23:17.827Z,2.25
2019-05-25T07:28:22.099Z,2.00
2019-05-25T07:33:26.188Z,2.33
2019-05-25T07:38:30.320Z,2.00
2019-05-25T07:43:34.401Z,2.00
2019-05-25T07:48:38.411Z,2.50
2019-05-25T07:53:42.505Z,2.80
2019-05-25T07:58:46.496Z,4.00
2019-05-25T08:03:50.615Z,3.80
2019-05-25T08:08:54.672Z,5.00
2019-05-25T08:13:58.675Z,5.00
2019-05-25T08:19:02.771Z,5.00
2019-05-25T08:24:07.131Z,6.00
2019-05-25T08:29:11.238Z,5.75
2019-05-25T08:34:15.251Z,5.00
2019-05-25T08:39:19.271Z,5.00
2019-05-25T08:44:23.274Z,4.75
2019-05-25T08:49:27.279Z,4.00
2019-05-25T08:54:31.456Z,3.60
2019-05-25T08:59:35.623Z,3.00
2019-05-25T09:04:39.665Z,3.40
2019-05-25T09:09:43.933Z,2.00
2019-05-25T09:14:47.959Z,2.75
2019-05-25T09:19:52.156Z,2.40
2019-05-25T09:24:56.229Z,1.00
2019-05-25T09:30:00.295Z,2.00
2019-05-25T09:35:04.720Z,2.00
2019-05-25T09:40:09.690Z,2.00
2019-05-25T09:45:14.352Z,2.50
2019-05-25T09:50:18.693Z,2.00
2019-05-25T09:55:23.267Z,1.40
2019-05-25T10:00:28.153Z,2.00
2019-05-25T10:05:33.154Z,2.00
2019-05-25T10:10:37.598Z,3.00
2019-05-25T10:15:51.102Z,2.80
2019-05-25T10:20:56.733Z,2.20
2019-05-25T10:26:00.781Z,3.00
2019-05-25T10:31:05.010Z,4.80
2019-05-25T10:36:09.249Z,4.00
2019-05-25T10:41:13.389Z,3.20
2019-05-25T10:46:17.744Z,5.00
2019-05-25T10:51:22.127Z,5.50
2019-05-25T10:56:26.196Z,9.50
2019-05-25T11:01:30.337Z,7.20
2019-05-25T11:06:35.025Z,5.00
2019-05-25T11:11:39.319Z,6.20
2019-05-25T11:16:43.444Z,7.00
2019-05-25T11:21:47.482Z,7.00
2019-05-25T11:26:51.685Z,5.50
2019-05-25T11:32:00.699Z,13.50
2019-05-25T11:37:01.507Z,8.00
2019-05-25T11:42:05.677Z,8.60
2019-05-25T11:47:09.676Z,8.50
2019-05-25T11:52:13.883Z,8.25
2019-05-25T11:57:18.018Z,9.00
2019-05-25T12:02:22.039Z,8.25
2019-05-25T12:07:26.050Z,10.25
2019-05-25T12:12:30.149Z,10.75
2019-05-25T12:17:34.201Z,11.40
2019-05-25T12:22:38.304Z,9.60
2019-05-25T12:27:42.510Z,9.25
2019-05-25T12:32:46.682Z,9.20
2019-05-25T12:37:50.780Z,10.75
2019-05-25T12:42:54.887Z,11.20
2019-05-25T12:47:59.259Z,11.00
2019-05-25T12:53:03.281Z,11.00
2019-05-25T12:58:07.293Z,9.60
2019-05-25T13:03:11.383Z,11.20
2019-05-25T13:08:15.472Z,10.40
2019-05-25T13:13:19.567Z,10.40
2019-05-25T13:18:23.651Z,11.40
2019-05-25T13:23:27.796Z,10.20
2019-05-25T13:28:31.910Z,12.50
2019-05-25T13:33:35.968Z,9.50
2019-05-25T13:38:40.017Z,10.80
2019-05-25T13:43:44.109Z,11.50
2019-05-25T13:48:48.123Z,12.00
2019-05-25T13:53:52.235Z,11.75
2019-05-25T13:58:56.406Z,12.20
2019-05-25T14:04:00.575Z,10.00
2019-05-25T14:09:06.127Z,13.20
2019-05-25T14:14:10.264Z,10.00
2019-05-25T14:19:14.326Z,13.00
2019-05-25T14:24:18.477Z,12.25
2019-05-25T14:29:25.975Z,11.00
2019-05-25T14:34:28.347Z,10.00
2019-05-25T14:39:32.493Z,10.40
2019-05-25T14:44:36.906Z,11.00
2019-05-25T14:49:41.130Z,9.60
2019-05-25T14:54:45.260Z,10.80
2019-05-25T14:59:49.362Z,10.20
2019-05-25T15:04:53.483Z,10.20
2019-05-25T15:09:57.530Z,10.00
2019-05-25T15:15:01.713Z,8.60
2019-05-25T15:20:07.255Z,10.67
2019-05-25T15:25:11.598Z,9.17
2019-05-25T15:30:15.869Z,8.20
2019-05-25T15:35:20.672Z,9.20
2019-05-25T15:40:29.218Z,10.40
2019-05-25T15:45:47.323Z,11.20
2019-05-25T16:02:05.803Z,10.00
2019-05-25T16:07:09.836Z,8.75
2019-05-25T16:12:13.888Z,9.00
2019-05-25T16:17:18.117Z,9.00
2019-05-25T16:22:22.155Z,8.25
2019-05-25T16:27:26.170Z,9.00
2019-05-25T16:32:30.319Z,8.25
2019-05-25T16:37:34.694Z,9.00
2019-05-25T16:42:38.932Z,7.00
2019-05-25T16:47:43.317Z,11.00
2019-05-25T16:52:50.537Z,8.20
2019-05-25T16:57:54.843Z,9.20
2019-05-25T17:02:59.505Z,8.80
2019-05-25T17:08:03.801Z,8.00
2019-05-25T17:13:08.243Z,7.75
2019-05-25T17:18:12.445Z,6.80
2019-05-25T17:23:20.350Z,7.00
2019-05-25T17:28:27.131Z,7.00
2019-05-25T17:33:45.260Z,7.00
2019-05-25T17:38:37.368Z,8.00
2019-05-25T17:43:41.492Z,7.80
2019-05-25T17:48:45.872Z,7.00
2019-05-25T17:53:49.984Z,6.60
2019-05-25T17:58:54.039Z,5.50
2019-05-25T18:04:06.288Z,5.50
2019-05-25T18:09:05.496Z,7.00
2019-05-25T18:14:09.621Z,6.00
2019-05-25T18:19:13.901Z,6.80
2019-05-25T18:24:18.036Z,4.75
2019-05-25T18:29:23.900Z,5.00
2019-05-25T18:34:28.124Z,5.75
2019-05-25T18:39:32.226Z,6.75
2019-05-25T18:44:36.279Z,5.20
2019-05-25T18:49:40.405Z,6.00
2019-05-25T18:54:44.451Z,4.40
2019-05-25T18:59:48.980Z,5.00
2019-05-25T19:04:59.446Z,5.25
2019-05-25T19:09:58.786Z,5.80
2019-05-25T19:15:05.012Z,4.80
2019-05-25T19:20:09.977Z,4.40
2019-05-25T19:25:14.570Z,5.60
2019-05-25T19:30:18.998Z,5.60
2019-05-25T19:35:23.168Z,4.80
2019-05-25T19:40:27.205Z,4.20
2019-05-25T19:45:32.898Z,4.40
2019-05-25T19:50:37.171Z,5.00
2019-05-25T19:55:41.289Z,4.00
2019-05-25T20:00:45.396Z,5.00
2019-05-25T20:05:49.496Z,5.00
2019-05-25T20:10:55.740Z,4.50
2019-05-25T20:15:59.327Z,5.00
2019-05-25T20:21:03.427Z,4.00
2019-05-25T20:26:07.501Z,4.20
2019-05-25T20:31:11.712Z,3.00
2019-05-25T20:36:15.864Z,3.00
2019-05-25T20:41:20.098Z,5.00
2019-05-25T20:46:24.198Z,3.40
2019-05-25T20:51:28.303Z,4.80
2019-05-25T20:56:32.429Z,4.00
2019-05-25T21:01:36.799Z,4.00
2019-05-25T21:06:41.174Z,4.25
2019-05-25T21:11:45.218Z,3.60
2019-05-25T21:16:49.237Z,4.00
2019-05-25T21:21:53.347Z,3.20
2019-05-25T21:26:57.496Z,4.25
2019-05-25T21:32:01.733Z,3.80
2019-05-25T21:37:06.053Z,3.50
2019-05-25T21:42:10.235Z,4.00
2019-05-25T21:47:14.503Z,4.50
2019-05-25T21:52:18.632Z,3.80
2019-05-25T21:57:22.867Z,3.25
2019-05-25T22:02:27.325Z,3.60
2019-05-25T22:07:33.718Z,3.25
2019-05-25T22:12:40.194Z,4.00
2019-05-25T22:17:44.241Z,4.00
2019-05-25T22:22:48.574Z,3.00
2019-05-25T22:27:52.958Z,3.75
2019-05-25T22:32:57.392Z,3.00
2019-05-25T22:38:01.808Z,3.00
2019-05-25T22:43:06.223Z,4.00
2019-05-25T22:48:10.709Z,3.20
2019-05-25T22:53:15.112Z,3.20
2019-05-25T22:58:19.608Z,3.60
2019-05-25T23:03:24.020Z,2.25
2019-05-25T23:08:28.511Z,3.25
2019-05-25T23:13:33.034Z,3.00
2019-05-25T23:18:37.450Z,2.50
2019-05-25T23:23:41.890Z,3.00
2019-05-25T23:28:46.348Z,3.25
2019-05-25T23:33:50.801Z,2.40
2019-05-25T23:38:55.274Z,2.00
2019-05-25T23:44:00.126Z,2.40
2019-05-25T23:49:04.791Z,2.25
2019-05-25T23:54:09.319Z,3.00
2019-05-25T23:59:13.803Z,3.00
